Time;durP1;ratioP1;P1;durP2;ratioP2;P2;SDS_P1;SDS_P2;PMS_P1;PMS_P2;Temp;Humidity;BMP_temperature;BMP_pressure;BME280_temperature;BME280_humidity;BME280_pressure;Samples;Min_cycle;Max_cycle;Signal;HPM_P1;HPM_P2
2023/02/24 00:00:32;;;;;;;42.73;21.50;;;9.30;99.90;;;;;;5075328;28;20448;-62
2023/02/24 00:03:04;;;;;;;36.60;18.27;;;9.40;99.90;;;;;;5075572;28;20484;-61
2023/02/24 00:05:34;;;;;;;48.03;21.13;;;9.30;99.90;;;;;;5074390;28;20498;-60
2023/02/24 00:08:00;;;;;;;46.07;21.73;;;9.30;99.90;;;;;;5075308;28;20539;-60
2023/02/24 00:10:27;;;;;;;40.23;20.70;;;9.10;99.90;;;;;;5075224;28;20537;-61
2023/02/24 00:12:54;;;;;;;42.30;20.00;;;9.10;99.90;;;;;;5075002;28;21005;-61
2023/02/24 00:15:20;;;;;;;47.13;21.17;;;9.10;99.90;;;;;;5075375;28;20538;-61
2023/02/24 00:17:47;;;;;;;37.87;18.07;;;9.00;99.90;;;;;;5075226;28;20465;-61
2023/02/24 00:20:15;;;;;;;40.80;19.87;;;9.00;99.90;;;;;;5075052;28;20479;-61
2023/02/24 00:22:43;;;;;;;41.43;20.17;;;8.90;99.90;;;;;;5075161;28;20444;-61
2023/02/24 00:25:13;;;;;;;34.47;19.20;;;8.90;99.90;;;;;;5074979;28;20443;-61
2023/02/24 00:27:41;;;;;;;35.03;16.87;;;8.90;99.90;;;;;;5074950;28;20444;-61
2023/02/24 00:30:10;;;;;;;39.93;17.90;;;8.90;99.90;;;;;;5074986;28;20475;-61
2023/02/24 00:32:37;;;;;;;40.23;18.60;;;8.90;99.90;;;;;;5074948;28;20478;-61
2023/02/24 00:35:05;;;;;;;35.83;17.00;;;8.80;99.90;;;;;;5074874;28;20824;-60
2023/02/24 00:37:31;;;;;;;33.20;17.20;;;8.90;99.90;;;;;;5074840;28;20484;-60
2023/02/24 00:39:59;;;;;;;38.43;16.83;;;8.90;99.90;;;;;;5074647;28;20858;-61
2023/02/24 00:42:26;;;;;;;35.90;16.60;;;8.90;99.90;;;;;;5074786;28;20447;-60
2023/02/24 00:44:53;;;;;;;41.13;17.13;;;8.90;99.90;;;;;;5074729;28;20444;-60
2023/02/24 00:47:21;;;;;;;41.17;18.37;;;8.80;99.90;;;;;;5074652;28;20451;-61
2023/02/24 00:49:49;;;;;;;34.70;15.80;;;8.80;99.90;;;;;;5074534;28;20850;-61
2023/02/24 00:52:18;;;;;;;34.77;17.60;;;8.80;99.90;;;;;;5074466;28;20462;-61
2023/02/24 00:54:46;;;;;;;30.90;15.97;;;8.80;99.90;;;;;;5074587;28;20452;-61
2023/02/24 00:57:17;;;;;;;30.03;15.27;;;8.80;99.90;;;;;;5074658;28;20460;-61
2023/02/24 00:59:46;;;;;;;31.97;15.57;;;8.80;99.90;;;;;;5074512;28;20878;-61
2023/02/24 01:02:13;;;;;;;36.93;16.67;;;8.80;99.90;;;;;;5074358;28;20531;-61
2023/02/24 01:04:40;;;;;;;31.83;17.87;;;8.70;99.90;;;;;;5074200;28;20546;-61
2023/02/24 01:07:09;;;;;;;33.50;16.30;;;8.70;99.90;;;;;;5074111;28;20963;-61
2023/02/24 01:09:37;;;;;;;34.90;15.10;;;8.70;99.90;;;;;;5074237;28;20882;-61
2023/02/24 01:14:54;;;;;;;29.27;14.40;;;8.80;99.90;;;;;;5074037;28;20443;-61
2023/02/24 01:17:21;;;;;;;28.53;14.93;;;8.70;99.90;;;;;;5073693;28;20993;-61
2023/02/24 01:19:49;;;;;;;23.33;14.10;;;8.70;99.90;;;;;;5074137;28;20508;-61
2023/02/24 01:22:20;;;;;;;29.63;14.70;;;8.70;99.90;;;;;;5073991;28;20869;-61
2023/02/24 01:24:48;;;;;;;33.33;14.10;;;8.80;99.90;;;;;;5073812;28;20436;-60
2023/02/24 01:27:17;;;;;;;25.90;12.87;;;8.80;99.90;;;;;;5073710;28;20939;-60
2023/02/24 01:29:44;;;;;;;28.60;13.97;;;8.80;99.90;;;;;;5073675;28;20454;-61
2023/02/24 01:32:15;;;;;;;29.90;14.87;;;8.80;99.90;;;;;;5073771;28;20476;-60
2023/02/24 01:34:42;;;;;;;31.23;15.10;;;8.60;99.90;;;;;;5073784;28;20451;-60
2023/02/24 01:37:09;;;;;;;27.97;13.50;;;8.50;99.90;;;;;;5073727;28;20474;-60
2023/02/24 01:39:36;;;;;;;27.00;10.80;;;8.40;99.90;;;;;;5073563;28;20494;-60
2023/02/24 01:42:05;;;;;;;22.63;11.27;;;7.90;99.90;;;;;;5073481;28;20466;-61
2023/02/24 01:45:14;;;;;;;25.63;9.27;;;7.80;99.90;;;;;;5073419;28;20566;-60
2023/02/24 01:47:44;;;;;;;29.67;10.90;;;7.70;99.90;;;;;;5073657;28;20552;-61
2023/02/24 01:50:14;;;;;;;20.43;10.13;;;7.60;99.90;;;;;;5073419;28;20446;-60
2023/02/24 01:52:45;;;;;;;25.80;9.33;;;7.60;99.90;;;;;;5073428;28;20553;-61
2023/02/24 01:55:18;;;;;;;18.30;8.83;;;7.40;99.90;;;;;;5073517;28;20452;-61
2023/02/24 01:57:46;;;;;;;22.53;8.80;;;7.30;99.90;;;;;;5073458;28;20473;-61
2023/02/24 02:00:31;;;;;;;14.83;7.90;;;7.20;99.90;;;;;;5073343;28;20512;-61
2023/02/24 02:03:02;;;;;;;23.60;9.70;;;7.20;99.90;;;;;;5073169;28;20795;-61
2023/02/24 02:05:29;;;;;;;20.33;9.40;;;7.10;99.90;;;;;;5073128;28;20457;-61
2023/02/24 02:07:56;;;;;;;22.50;9.20;;;7.00;99.90;;;;;;5073303;28;20440;-60
2023/02/24 02:10:23;;;;;;;17.93;9.67;;;7.00;99.90;;;;;;5073314;28;20450;-61
2023/02/24 02:12:50;;;;;;;19.63;8.37;;;6.90;99.90;;;;;;5073148;28;20524;-61
2023/02/24 02:15:19;;;;;;;19.50;7.60;;;7.00;99.90;;;;;;5072974;28;20450;-61
2023/02/24 02:17:59;;;;;;;18.37;8.63;;;7.00;99.90;;;;;;5072953;28;20462;-61
2023/02/24 02:20:52;;;;;;;12.37;6.77;;;7.10;99.90;;;;;;5073218;28;20459;-60
2023/02/24 02:23:43;;;;;;;26.10;7.20;;;7.10;99.90;;;;;;5073036;28;20446;-61
2023/02/24 02:26:31;;;;;;;19.80;6.33;;;6.90;99.90;;;;;;5072857;28;20451;-60
2023/02/24 02:29:24;;;;;;;14.70;6.27;;;6.60;99.90;;;;;;5072518;28;20453;-61
2023/02/24 02:32:14;;;;;;;22.00;5.90;;;6.60;99.90;;;;;;5072918;28;20487;-61
2023/02/24 02:34:50;;;;;;;19.23;6.60;;;6.60;99.90;;;;;;5072950;28;20540;-61
2023/02/24 02:37:30;;;;;;;15.70;7.20;;;6.40;99.90;;;;;;5072929;28;20941;-61
2023/02/24 02:40:07;;;;;;;14.90;7.17;;;6.50;99.90;;;;;;5072987;28;20196;-61
2023/02/24 02:42:41;;;;;;;25.80;5.55;;;6.40;99.90;;;;;;5072950;28;20812;-61
2023/02/24 02:45:13;;;;;;;18.10;5.63;;;6.40;99.90;;;;;;5072978;28;20687;-61
2023/02/24 02:47:43;;;;;;;16.67;5.60;;;6.40;99.90;;;;;;5072933;28;20949;-61
2023/02/24 02:50:17;;;;;;;16.80;5.20;;;6.40;99.90;;;;;;5072833;28;20496;-61
2023/02/24 02:52:52;;;;;;;16.42;4.82;;;6.40;99.90;;;;;;5072876;28;20584;-60
2023/02/24 02:55:23;;;;;;;16.53;4.90;;;6.40;99.90;;;;;;5072608;28;20196;-61
2023/02/24 02:57:54;;;;;;;12.40;5.60;;;6.20;99.90;;;;;;5072850;28;20857;-61
2023/02/24 03:00:23;;;;;;;12.70;4.38;;;6.30;99.90;;;;;;5072767;28;20196;-60
2023/02/24 03:02:54;;;;;;;17.80;4.90;;;6.30;99.90;;;;;;5072611;28;20225;-61
2023/02/24 03:05:28;;;;;;;9.27;4.27;;;6.30;99.90;;;;;;5072530;28;20196;-61
2023/02/24 03:07:58;;;;;;;12.07;4.00;;;6.20;99.90;;;;;;5072603;28;20492;-61
2023/02/24 03:10:28;;;;;;;22.33;4.50;;;6.20;99.90;;;;;;5072707;28;20491;-61
2023/02/24 03:12:58;;;;;;;7.85;3.70;;;6.10;99.90;;;;;;5072208;28;20478;-61
2023/02/24 03:15:27;;;;;;;6.90;3.80;;;5.90;99.90;;;;;;5072537;28;20203;-61
2023/02/24 03:18:00;;;;;;;10.18;3.58;;;5.90;99.90;;;;;;5072435;28;20973;-61
2023/02/24 03:20:33;;;;;;;9.70;2.80;;;6.00;99.90;;;;;;5072396;28;20287;-60
2023/02/24 03:23:03;;;;;;;14.63;2.92;;;6.10;99.90;;;;;;5072435;28;20280;-60
2023/02/24 03:25:38;;;;;;;8.57;2.87;;;6.00;99.90;;;;;;5072426;28;20219;-60
2023/02/24 03:28:10;;;;;;;9.43;3.53;;;6.00;99.90;;;;;;5072390;28;20507;-61
2023/02/24 03:30:42;;;;;;;11.88;3.40;;;5.90;99.90;;;;;;5072282;28;20477;-61
2023/02/24 03:33:17;;;;;;;13.63;2.60;;;5.80;99.90;;;;;;5072376;28;20246;-61
2023/02/24 03:35:45;;;;;;;18.02;3.47;;;5.70;99.90;;;;;;5072501;28;20537;-61
2023/02/24 03:38:13;;;;;;;9.75;2.05;;;5.60;99.90;;;;;;5072143;28;20192;-61
2023/02/24 03:40:42;;;;;;;8.65;2.55;;;5.60;99.90;;;;;;5075252;28;20270;-61
2023/02/24 03:43:15;;;;;;;5.75;2.33;;;5.50;99.90;;;;;;5075809;28;20196;-62
2023/02/24 03:45:42;;;;;;;14.27;3.50;;;5.30;99.90;;;;;;5075988;28;20188;-61
2023/02/24 03:48:11;;;;;;;7.53;2.22;;;5.40;99.90;;;;;;5075852;28;20227;-60
2023/02/24 03:50:39;;;;;;;11.00;2.63;;;5.40;99.90;;;;;;5075656;28;20218;-61
2023/02/24 03:53:29;;;;;;;11.45;2.60;;;5.40;99.90;;;;;;5075584;28;20282;-63
2023/02/24 03:56:03;;;;;;;8.05;2.90;;;5.50;99.90;;;;;;5075634;28;20226;-61
2023/02/24 03:58:45;;;;;;;11.63;4.27;;;5.50;99.90;;;;;;5075460;28;20278;-62
2023/02/24 04:01:17;;;;;;;5.75;2.40;;;5.50;99.90;;;;;;5075651;28;20454;-61
2023/02/24 04:03:56;;;;;;;12.48;3.15;;;5.50;99.90;;;;;;5075750;28;20199;-61
2023/02/24 04:06:33;;;;;;;12.52;2.28;;;5.50;99.90;;;;;;5075770;28;20278;-61
2023/02/24 04:09:10;;;;;;;5.75;2.20;;;5.50;99.90;;;;;;5075485;28;20269;-61
2023/02/24 04:11:44;;;;;;;5.20;2.55;;;5.40;99.90;;;;;;5075292;28;20314;-61
2023/02/24 04:14:23;;;;;;;11.68;2.80;;;5.40;99.90;;;;;;5075362;28;20209;-62
2023/02/24 04:16:59;;;;;;;8.68;3.75;;;5.50;99.90;;;;;;5075453;28;20196;-61
2023/02/24 04:19:29;;;;;;;9.52;3.17;;;5.50;99.90;;;;;;5075245;28;20651;-61
2023/02/24 04:21:56;;;;;;;5.30;2.20;;;5.50;99.90;;;;;;5075222;28;20196;-61
2023/02/24 04:24:29;;;;;;;7.18;2.10;;;5.50;99.90;;;;;;5075567;28;20459;-61
2023/02/24 04:26:58;;;;;;;5.47;1.90;;;5.50;99.90;;;;;;5074922;28;20689;-62
2023/02/24 04:29:28;;;;;;;9.85;2.72;;;5.50;99.90;;;;;;5075038;28;20585;-61
2023/02/24 04:32:00;;;;;;;10.80;2.70;;;5.50;99.90;;;;;;5074952;28;20224;-61
2023/02/24 04:34:31;;;;;;;3.13;2.00;;;5.40;99.90;;;;;;5075292;28;20549;-61
2023/02/24 04:37:01;;;;;;;7.88;3.05;;;5.50;99.90;;;;;;5074900;28;20192;-61
2023/02/24 04:39:30;;;;;;;15.57;3.45;;;5.50;99.90;;;;;;5074914;28;20198;-61
2023/02/24 04:42:00;;;;;;;7.53;2.73;;;5.40;99.90;;;;;;5074806;28;20670;-61
2023/02/24 04:44:28;;;;;;;6.60;2.50;;;5.40;99.90;;;;;;5074543;28;20489;-61
2023/02/24 04:46:54;;;;;;;11.48;3.35;;;5.50;99.90;;;;;;5074583;28;20224;-61
2023/02/24 04:49:21;;;;;;;4.38;2.30;;;5.40;99.90;;;;;;5074555;28;20249;-60
2023/02/24 04:51:48;;;;;;;9.98;2.85;;;5.40;99.90;;;;;;5074012;28;20220;-60
2023/02/24 04:54:17;;;;;;;7.57;2.97;;;5.40;99.90;;;;;;5074464;28;20281;-60
2023/02/24 04:56:46;;;;;;;6.70;3.13;;;5.30;99.90;;;;;;5074559;28;20674;-60
2023/02/24 04:59:13;;;;;;;12.50;4.03;;;5.40;99.90;;;;;;5074515;28;20557;-60
2023/02/24 05:01:42;;;;;;;7.20;3.35;;;5.40;99.90;;;;;;5074385;28;20236;-59
2023/02/24 05:04:10;;;;;;;6.97;3.50;;;5.40;99.90;;;;;;5074371;28;20201;-62
2023/02/24 05:06:39;;;;;;;9.40;2.90;;;5.40;99.90;;;;;;5074182;28;20934;-62
2023/02/24 05:09:12;;;;;;;12.85;3.17;;;5.50;99.90;;;;;;5074388;28;20565;-62
2023/02/24 05:11:41;;;;;;;6.93;2.65;;;5.40;99.90;;;;;;5074006;28;20251;-60
2023/02/24 05:14:13;;;;;;;5.80;3.20;;;5.50;99.90;;;;;;5074229;28;20196;-60
2023/02/24 05:16:41;;;;;;;11.77;2.85;;;5.50;99.90;;;;;;5074068;28;20814;-60
2023/02/24 05:21:52;;;;;;;11.70;2.63;;;5.60;99.90;;;;;;5074073;28;20210;-60
2023/02/24 05:24:19;;;;;;;12.05;2.55;;;5.60;99.90;;;;;;5073991;28;20283;-60
2023/02/24 05:26:46;;;;;;;6.82;2.45;;;5.60;99.90;;;;;;5074002;28;20202;-60
2023/02/24 05:29:14;;;;;;;9.23;2.53;;;5.60;99.90;;;;;;5073833;28;20216;-63
2023/02/24 05:31:40;;;;;;;8.88;2.40;;;5.60;99.90;;;;;;5073830;28;20215;-62
2023/02/24 05:34:08;;;;;;;6.95;2.58;;;5.60;99.90;;;;;;5073872;28;20200;-60
2023/02/24 05:36:39;;;;;;;3.92;2.47;;;5.60;99.90;;;;;;5073773;28;20232;-60
2023/02/24 05:39:10;;;;;;;7.57;2.20;;;5.50;99.90;;;;;;5073656;28;20195;-60
2023/02/24 05:41:40;;;;;;;7.53;2.10;;;5.40;99.90;;;;;;5073561;28;20206;-61
2023/02/24 05:44:11;;;;;;;8.60;2.40;;;5.50;99.90;;;;;;5073513;28;20636;-61
2023/02/24 05:46:43;;;;;;;5.35;2.40;;;5.40;99.90;;;;;;5073634;28;20195;-61
2023/02/24 05:49:13;;;;;;;5.88;2.30;;;5.40;99.90;;;;;;5073511;28;20191;-62
2023/02/24 05:51:42;;;;;;;3.33;2.00;;;5.50;99.90;;;;;;5073200;28;20215;-62
2023/02/24 05:54:12;;;;;;;5.57;2.50;;;5.50;99.90;;;;;;5073276;28;20195;-62
2023/02/24 05:56:42;;;;;;;8.13;2.90;;;5.50;99.90;;;;;;5073197;28;20217;-61
2023/02/24 05:59:16;;;;;;;7.68;2.13;;;5.50;99.90;;;;;;5073446;28;20606;-60
2023/02/24 06:01:45;;;;;;;7.32;2.47;;;5.50;99.90;;;;;;5073307;28;20190;-62
2023/02/24 06:04:19;;;;;;;7.00;3.13;;;5.60;99.90;;;;;;5072502;28;20265;-61
2023/02/24 06:06:49;;;;;;;7.18;2.47;;;5.60;99.90;;;;;;5073157;28;20194;-62
2023/02/24 06:09:16;;;;;;;4.85;2.45;;;5.60;99.90;;;;;;5073037;28;20200;-61
2023/02/24 06:11:43;;;;;;;3.60;2.10;;;5.60;99.90;;;;;;5072729;28;20228;-61
2023/02/24 06:14:11;;;;;;;6.53;2.05;;;5.60;99.90;;;;;;5073147;28;20202;-61
2023/02/24 06:16:40;;;;;;;6.78;2.58;;;5.50;99.90;;;;;;5073074;28;20286;-61
2023/02/24 06:19:09;;;;;;;5.77;2.13;;;5.60;99.90;;;;;;5073056;28;20614;-61
2023/02/24 06:21:39;;;;;;;5.10;2.42;;;5.60;99.90;;;;;;5073008;28;20455;-61
2023/02/24 06:24:13;;;;;;;5.82;1.60;;;5.60;99.90;;;;;;5073060;28;20198;-62
2023/02/24 06:26:42;;;;;;;5.95;1.60;;;5.50;99.90;;;;;;5073053;28;20201;-62
2023/02/24 06:29:12;;;;;;;6.40;2.10;;;5.40;99.90;;;;;;5073034;28;20274;-61
2023/02/24 06:31:38;;;;;;;4.33;1.60;;;5.50;99.90;;;;;;5072871;28;20202;-61
2023/02/24 06:34:05;;;;;;;5.93;1.50;;;5.50;99.90;;;;;;5072709;28;20456;-60
2023/02/24 06:36:33;;;;;;;4.20;1.17;;;5.60;99.90;;;;;;5072986;28;20290;-60
2023/02/24 06:39:00;;;;;;;6.20;1.55;;;5.50;99.90;;;;;;5072699;28;20969;-60
2023/02/24 06:41:28;;;;;;;5.40;1.42;;;5.50;99.90;;;;;;5072855;28;20196;-60
2023/02/24 06:43:55;;;;;;;6.13;1.70;;;5.50;99.90;;;;;;5072988;28;20294;-61
2023/02/24 06:46:21;;;;;;;3.15;1.75;;;5.50;99.90;;;;;;5072509;28;20199;-61
2023/02/24 06:48:48;;;;;;;2.45;1.30;;;5.50;99.90;;;;;;5072614;28;20194;-62
2023/02/24 06:51:15;;;;;;;4.93;1.75;;;5.60;99.90;;;;;;5072503;28;20730;-61
2023/02/24 06:53:44;;;;;;;5.40;1.30;;;5.70;99.90;;;;;;5072627;28;20295;-60
2023/02/24 06:56:14;;;;;;;3.83;1.55;;;5.70;99.90;;;;;;5072632;28;20222;-62
2023/02/24 06:58:43;;;;;;;3.90;1.83;;;5.70;99.90;;;;;;5072579;28;20260;-60
2023/02/24 07:01:12;;;;;;;7.07;1.25;;;5.70;99.90;;;;;;5072370;28;20459;-60
2023/02/24 07:03:46;;;;;;;6.93;1.58;;;5.70;99.90;;;;;;5072704;28;20228;-60
2023/02/24 07:06:22;;;;;;;4.82;1.10;;;5.70;99.90;;;;;;5072580;28;20673;-62
2023/02/24 07:08:52;;;;;;;3.67;1.50;;;5.70;99.90;;;;;;5072675;28;20195;-61
2023/02/24 07:11:20;;;;;;;8.15;1.42;;;5.80;99.90;;;;;;5072275;28;20485;-61
2023/02/24 07:13:47;;;;;;;4.15;1.73;;;5.90;99.90;;;;;;5072404;28;20568;-61
2023/02/24 07:16:15;;;;;;;3.53;1.20;;;5.90;99.90;;;;;;5076910;28;20229;-61
2023/02/24 07:18:47;;;;;;;3.45;1.38;;;5.80;99.90;;;;;;5076466;28;20458;-61
2023/02/24 07:21:15;;;;;;;6.18;1.60;;;5.80;99.90;;;;;;5076278;28;20192;-62
2023/02/24 07:23:42;;;;;;;2.97;1.15;;;5.70;99.90;;;;;;5076163;28;20231;-61
2023/02/24 07:26:12;;;;;;;3.53;1.50;;;5.70;99.90;;;;;;5075961;28;20575;-62
2023/02/24 07:28:41;;;;;;;4.18;1.48;;;5.80;99.90;;;;;;5075991;28;20381;-62
2023/02/24 07:31:10;;;;;;;9.33;2.60;;;5.90;99.90;;;;;;5076035;28;20282;-62
2023/02/24 07:33:37;;;;;;;10.43;1.85;;;5.90;99.90;;;;;;5075959;28;20481;-63
2023/02/24 07:36:07;;;;;;;6.55;2.95;;;6.00;99.90;;;;;;5076102;28;20282;-60
2023/02/24 07:38:38;;;;;;;2.40;1.10;;;6.00;99.90;;;;;;5075779;28;20199;-61
2023/02/24 07:41:06;;;;;;;3.90;1.30;;;6.00;99.90;;;;;;5076004;28;20507;-60
2023/02/24 07:43:34;;;;;;;5.03;1.10;;;5.90;99.90;;;;;;5076008;28;20286;-61
2023/02/24 07:46:07;;;;;;;8.50;1.77;;;5.90;99.90;;;;;;5076114;28;20191;-61
2023/02/24 07:48:35;;;;;;;9.82;1.98;;;5.90;99.90;;;;;;5075718;28;20187;-61
2023/02/24 07:51:01;;;;;;;4.90;1.60;;;6.00;99.90;;;;;;5075567;28;20218;-62
2023/02/24 07:53:28;;;;;;;5.20;1.50;;;6.00;99.90;;;;;;5075727;28;20230;-61
2023/02/24 07:55:55;;;;;;;6.05;2.45;;;6.00;99.90;;;;;;5075716;28;20199;-61
2023/02/24 07:58:22;;;;;;;5.03;1.35;;;5.90;99.90;;;;;;5075615;28;20287;-61
2023/02/24 08:00:58;;;;;;;5.20;2.50;;;5.80;99.90;;;;;;5075510;28;20207;-61
2023/02/24 08:03:26;;;;;;;7.00;2.27;;;5.90;99.90;;;;;;5075411;28;20654;-61
2023/02/24 08:05:58;;;;;;;5.60;1.70;;;5.90;99.90;;;;;;5075616;28;20508;-62
2023/02/24 08:08:26;;;;;;;5.13;1.45;;;6.00;99.90;;;;;;5075484;28;20218;-60
2023/02/24 08:11:02;;;;;;;4.28;1.73;;;6.10;99.90;;;;;;5075367;28;20192;-61
2023/02/24 08:13:36;;;;;;;4.63;1.40;;;6.20;99.90;;;;;;5075197;28;20241;-60
2023/02/24 08:16:06;;;;;;;9.23;1.73;;;6.10;99.90;;;;;;5075059;28;20548;-62
2023/02/24 08:18:36;;;;;;;9.07;1.88;;;6.10;99.90;;;;;;5075299;28;20252;-63
2023/02/24 08:21:03;;;;;;;2.25;1.50;;;6.20;99.90;;;;;;5075184;28;20192;-60
2023/02/24 08:23:33;;;;;;;3.92;2.22;;;6.10;99.90;;;;;;5075121;28;20196;-64
2023/02/24 08:26:02;;;;;;;4.70;2.00;;;6.10;99.90;;;;;;5074090;28;20290;-61
2023/02/24 08:28:28;;;;;;;8.25;1.90;;;6.10;99.90;;;;;;5074986;28;20485;-61
2023/02/24 08:30:55;;;;;;;4.70;2.25;;;6.00;99.90;;;;;;5074964;28;20282;-62
2023/02/24 08:33:23;;;;;;;5.83;2.67;;;6.00;99.90;;;;;;5074872;28;20223;-61
2023/02/24 08:35:56;;;;;;;5.27;1.73;;;6.00;99.90;;;;;;5074516;28;20540;-60
2023/02/24 08:38:23;;;;;;;6.72;1.92;;;6.00;99.90;;;;;;5074699;28;20478;-59
2023/02/24 08:40:53;;;;;;;3.97;2.00;;;6.00;99.90;;;;;;5074560;28;20249;-59
2023/02/24 08:43:31;;;;;;;7.73;2.70;;;6.00;99.90;;;;;;5074418;28;20674;-59
2023/02/24 08:46:02;;;;;;;5.00;1.92;;;6.10;99.90;;;;;;5074872;28;20460;-61
2023/02/24 08:48:36;;;;;;;3.40;1.48;;;6.00;99.90;;;;;;5074508;28;20196;-62
2023/02/24 08:51:07;;;;;;;7.97;2.03;;;6.00;99.90;;;;;;5074878;28;20199;-62
2023/02/24 08:53:39;;;;;;;5.95;1.85;;;6.10;99.90;;;;;;5074175;28;20220;-59
2023/02/24 08:56:10;;;;;;;6.80;1.80;;;6.10;99.90;;;;;;5074728;28;20199;-61
2023/02/24 08:58:39;;;;;;;3.33;1.53;;;6.10;99.90;;;;;;5074507;28;21003;-62
2023/02/24 09:01:17;;;;;;;4.80;1.80;;;6.00;99.90;;;;;;5074247;28;20453;-63
2023/02/24 09:03:47;;;;;;;11.27;2.23;;;6.10;99.90;;;;;;5074233;28;20867;-63
2023/02/24 09:06:16;;;;;;;9.70;2.05;;;6.10;99.90;;;;;;5074086;28;20464;-65
2023/02/24 09:08:44;;;;;;;9.60;3.20;;;6.20;99.90;;;;;;5074179;28;20555;-61
2023/02/24 09:11:13;;;;;;;3.53;2.40;;;6.20;99.90;;;;;;5074018;28;20197;-62
2023/02/24 09:13:50;;;;;;;7.57;2.60;;;6.30;99.90;;;;;;5073730;28;20224;-61
2023/02/24 09:16:18;;;;;;;6.80;3.67;;;6.40;99.90;;;;;;5073996;28;20203;-61
2023/02/24 09:19:39;;;;;;;8.18;2.65;;;6.50;99.90;;;;;;5073788;28;20493;-60
2023/02/24 09:24:26;;;;;;;5.40;2.80;;;6.50;99.90;;;;;;5073450;28;20447;-61
2023/02/24 09:26:57;;;;;;;4.57;2.53;;;6.60;99.90;;;;;;5073573;28;20489;-61
2023/02/24 09:29:33;;;;;;;3.03;1.90;;;6.50;99.90;;;;;;5073697;28;20458;-60
2023/02/24 09:32:04;;;;;;;5.27;2.47;;;6.60;99.90;;;;;;5073669;28;20886;-61
2023/02/24 09:34:33;;;;;;;6.77;2.60;;;6.70;99.90;;;;;;5073380;28;20486;-61
2023/02/24 09:37:02;;;;;;;6.53;2.40;;;6.70;99.90;;;;;;5073290;28;20455;-61
2023/02/24 09:39:57;;;;;;;5.83;2.23;;;6.80;99.90;;;;;;5052771;28;20534;-62
2023/02/24 09:42:31;;;;;;;4.83;1.93;;;6.70;99.90;;;;;;5033399;28;20453;-60
2023/02/24 09:45:02;;;;;;;3.80;2.00;;;6.70;99.90;;;;;;5033386;28;21017;-60
2023/02/24 09:47:55;;;;;;;6.00;3.10;;;6.60;99.90;;;;;;5033362;28;20563;-60
2023/02/24 09:50:36;;;;;;;8.70;2.60;;;6.70;99.90;;;;;;5033358;28;20583;-61
2023/02/24 09:53:16;;;;;;;6.43;2.03;;;6.80;99.90;;;;;;5033129;28;20960;-60
2023/02/24 09:55:59;;;;;;;3.10;2.03;;;6.70;99.90;;;;;;5033361;28;20528;-60
2023/02/24 09:58:37;;;;;;;6.03;1.90;;;6.90;99.90;;;;;;5033176;28;20447;-60
2023/02/24 10:01:22;;;;;;;6.87;1.87;;;6.90;99.90;;;;;;5033231;28;20447;-62
2023/02/24 10:04:03;;;;;;;5.67;2.30;;;6.90;99.90;;;;;;5033177;28;20522;-62
2023/02/24 10:06:35;;;;;;;11.00;2.73;;;6.70;99.90;;;;;;5032881;28;20454;-60
2023/02/24 10:09:11;;;;;;;4.68;2.00;;;6.70;99.90;;;;;;5033106;28;20487;-59
2023/02/24 10:11:52;;;;;;;4.63;2.17;;;6.80;99.90;;;;;;5032914;28;20323;-60
2023/02/24 10:14:22;;;;;;;10.13;2.35;;;6.90;99.90;;;;;;5032901;28;20488;-63
2023/02/24 10:17:21;;;;;;;5.63;2.30;;;6.80;99.90;;;;;;5032943;28;20198;-61
2023/02/24 10:19:40;;;;;;;4.50;1.50;;;6.90;99.90;;;;;;5032986;28;20466;-61
2023/02/24 10:22:26;;;;;;;5.33;1.80;;;6.70;99.90;;;;;;5032992;28;20838;-59
2023/02/24 10:25:09;;;;;;;6.70;2.70;;;6.80;99.90;;;;;;5032922;28;20849;-61
2023/02/24 10:27:51;;;;;;;9.17;2.50;;;6.90;99.90;;;;;;5032710;28;20452;-60
2023/02/24 10:30:39;;;;;;;6.83;3.30;;;6.90;99.90;;;;;;5032858;28;20449;-60
2023/02/24 10:33:17;;;;;;;7.20;2.27;;;7.00;99.90;;;;;;5032680;28;21032;-63
2023/02/24 10:35:43;;;;;;;14.30;6.07;;;6.90;99.90;;;;;;5032640;28;20874;-61
2023/02/24 10:38:12;;;;;;;5.33;2.53;;;7.00;99.90;;;;;;5032809;28;20455;-62
2023/02/24 10:40:47;;;;;;;3.70;1.67;;;7.10;99.90;;;;;;5032349;28;20503;-64
2023/02/24 10:43:18;;;;;;;3.50;1.87;;;7.10;99.90;;;;;;5032492;28;20457;-62
2023/02/24 10:45:46;;;;;;;5.80;2.50;;;7.30;99.90;;;;;;5032266;28;20453;-61
2023/02/24 10:48:23;;;;;;;3.43;1.73;;;7.30;99.90;;;;;;5032851;28;20548;-61
2023/02/24 10:50:53;;;;;;;2.00;1.33;;;7.30;99.90;;;;;;5036427;28;20459;-59
2023/02/24 10:53:33;;;;;;;3.43;2.27;;;7.40;99.90;;;;;;5036686;28;20484;-59
2023/02/24 10:56:25;;;;;;;5.23;1.60;;;7.20;99.90;;;;;;5036392;28;20515;-59
2023/02/24 10:59:19;;;;;;;6.10;1.90;;;7.20;99.90;;;;;;5036642;28;20449;-59
2023/02/24 11:01:57;;;;;;;6.23;1.90;;;7.40;99.90;;;;;;5036517;28;20711;-59
2023/02/24 11:04:52;;;;;;;4.80;1.37;;;7.40;99.90;;;;;;5036152;28;20536;-59
2023/02/24 11:07:24;;;;;;;8.20;2.50;;;7.40;99.90;;;;;;5036249;28;21021;-60
2023/02/24 11:10:10;;;;;;;3.00;1.48;;;7.30;99.90;;;;;;5035983;28;20449;-59
2023/02/24 11:18:19;;;;;;;2.47;1.90;;;7.40;99.90;;;;;;5036263;28;20437;-61
2023/02/24 11:20:48;;;;;;;4.53;1.50;;;7.50;99.90;;;;;;5036281;28;20925;-60
2023/02/24 11:23:18;;;;;;;3.00;1.73;;;7.50;99.90;;;;;;5035982;28;20489;-61
2023/02/24 11:25:49;;;;;;;4.93;2.80;;;7.60;99.90;;;;;;5035928;28;20450;-59
2023/02/24 11:28:29;;;;;;;4.20;1.33;;;7.60;99.90;;;;;;5036108;28;20539;-59
2023/02/24 11:31:06;;;;;;;4.77;1.23;;;7.60;99.90;;;;;;5035850;28;20454;-59
2023/02/24 11:33:41;;;;;;;4.43;2.00;;;7.60;99.90;;;;;;5036313;28;20997;-59
2023/02/24 11:36:19;;;;;;;4.07;1.17;;;7.30;99.90;;;;;;5035847;28;20448;-59
2023/02/24 11:38:57;;;;;;;1.37;1.00;;;7.00;99.90;;;;;;5036032;28;20453;-59
2023/02/24 11:41:29;;;;;;;4.27;1.47;;;6.90;99.90;;;;;;5035967;28;20547;-59
2023/02/24 11:44:00;;;;;;;4.37;1.70;;;6.90;99.90;;;;;;5035856;28;20812;-59
2023/02/24 11:46:36;;;;;;;2.60;1.30;;;6.60;99.90;;;;;;5035750;28;20478;-59
2023/02/24 11:49:25;;;;;;;10.30;1.80;;;6.60;99.90;;;;;;5035957;28;20484;-59
2023/02/24 11:51:54;;;;;;;4.40;2.07;;;6.50;99.90;;;;;;5035729;28;20467;-59
2023/02/24 11:54:22;;;;;;;3.47;1.60;;;6.50;99.90;;;;;;5035568;28;20494;-59
2023/02/24 11:56:58;;;;;;;3.90;1.20;;;6.50;99.90;;;;;;5035692;28;20198;-59
2023/02/24 11:59:30;;;;;;;4.20;1.60;;;6.50;99.90;;;;;;5035799;28;20448;-60
2023/02/24 12:02:04;;;;;;;3.83;1.23;;;6.40;99.90;;;;;;5034341;28;20543;-60
2023/02/24 12:04:36;;;;;;;6.13;1.60;;;6.40;99.90;;;;;;5035484;28;20449;-60
2023/02/24 12:07:07;;;;;;;5.73;1.97;;;6.40;99.90;;;;;;5035360;28;20456;-61
2023/02/24 12:09:41;;;;;;;4.78;1.55;;;6.30;99.90;;;;;;5035476;28;20456;-59
2023/02/24 12:12:15;;;;;;;1.50;1.25;;;6.10;99.90;;;;;;5035229;28;20587;-60
2023/02/24 12:14:46;;;;;;;4.50;2.38;;;5.80;99.90;;;;;;5035274;28;20216;-59
2023/02/24 12:17:18;;;;;;;3.75;1.40;;;5.70;99.90;;;;;;5035292;28;20197;-59
2023/02/24 12:19:57;;;;;;;2.53;1.50;;;5.60;99.90;;;;;;5035113;28;20194;-60
2023/02/24 12:22:27;;;;;;;6.18;2.08;;;5.70;99.90;;;;;;5035301;28;20210;-60
2023/02/24 12:24:54;;;;;;;4.88;2.05;;;5.50;99.90;;;;;;5035077;28;20197;-60
2023/02/24 12:27:38;;;;;;;5.75;1.70;;;5.50;99.90;;;;;;5034952;28;20202;-60
2023/02/24 12:30:32;;;;;;;2.70;1.57;;;5.50;99.90;;;;;;5034853;28;20653;-60
2023/02/24 12:33:07;;;;;;;1.70;1.60;;;5.50;99.90;;;;;;5035134;28;20456;-60
2023/02/24 12:35:44;;;;;;;3.50;1.75;;;5.60;99.90;;;;;;5034870;28;20224;-60
2023/02/24 12:38:27;;;;;;;8.20;1.70;;;5.60;99.90;;;;;;5034868;28;20200;-59
2023/02/24 12:41:16;;;;;;;2.20;1.25;;;5.30;99.90;;;;;;5034741;28;20201;-60
2023/02/24 12:43:50;;;;;;;5.38;1.40;;;5.40;99.90;;;;;;5035102;28;20564;-60
2023/02/24 12:46:23;;;;;;;2.50;1.63;;;5.20;99.90;;;;;;5034778;28;20198;-60
2023/02/24 12:49:12;;;;;;;4.97;1.80;;;5.10;99.90;;;;;;5034742;28;20203;-60
2023/02/24 12:51:50;;;;;;;5.20;1.60;;;5.00;99.90;;;;;;5034989;28;20196;-60
2023/02/24 12:54:22;;;;;;;4.70;1.83;;;5.10;99.90;;;;;;5034741;28;20225;-60
2023/02/24 12:56:56;;;;;;;2.63;1.60;;;5.20;99.90;;;;;;5034583;28;20214;-60
2023/02/24 12:59:28;;;;;;;5.60;2.42;;;5.10;99.90;;;;;;5034218;28;20557;-60
2023/02/24 13:02:01;;;;;;;3.65;2.05;;;5.20;99.90;;;;;;5034430;28;20663;-59
2023/02/24 13:04:39;;;;;;;5.40;2.83;;;5.10;99.90;;;;;;5034489;28;20206;-60
2023/02/24 13:07:16;;;;;;;8.65;2.17;;;5.00;99.90;;;;;;5034220;28;20247;-60
2023/02/24 13:09:54;;;;;;;2.80;2.28;;;5.10;99.90;;;;;;5034129;28;20193;-60
2023/02/24 13:12:26;;;;;;;3.60;2.10;;;5.20;99.90;;;;;;5033868;28;20317;-60
2023/02/24 13:14:55;;;;;;;3.47;2.10;;;5.20;99.90;;;;;;5034029;28;20228;-60
2023/02/24 13:17:25;;;;;;;2.88;2.55;;;5.10;99.90;;;;;;5033967;28;20192;-60
2023/02/24 13:19:53;;;;;;;5.60;2.65;;;5.10;99.90;;;;;;5034198;28;20196;-59
2023/02/24 13:22:23;;;;;;;6.00;2.97;;;4.80;99.90;;;;;;5033908;28;20542;-59
2023/02/24 13:24:58;;;;;;;5.53;1.75;;;4.80;99.90;;;;;;5034260;28;20192;-60
2023/02/24 13:27:27;;;;;;;5.72;1.90;;;5.00;99.90;;;;;;5034021;28;20223;-59
2023/02/24 13:29:57;;;;;;;5.25;1.90;;;5.00;99.90;;;;;;5033772;28;20675;-60
2023/02/24 13:32:28;;;;;;;2.50;1.63;;;5.10;99.90;;;;;;5033925;28;20281;-61